createdAt,value
2023-05-03T00:00:42.106Z,14.40
2023-05-03T00:03:09.725Z,14.30
2023-05-03T00:05:37.731Z,14.40
2023-05-03T00:08:05.477Z,14.40
2023-05-03T00:10:33.099Z,14.40
2023-05-03T00:13:00.487Z,14.40
2023-05-03T00:15:28.057Z,14.40
2023-05-03T00:17:55.589Z,14.40
2023-05-03T00:20:23.218Z,14.30
2023-05-03T00:22:50.876Z,14.30
2023-05-03T00:25:18.387Z,14.40
2023-05-03T00:27:45.766Z,14.40
2023-05-03T00:30:13.504Z,14.40
2023-05-03T00:32:40.963Z,14.40
2023-05-03T00:35:08.633Z,14.40
2023-05-03T00:37:37.102Z,14.40
2023-05-03T00:40:05.693Z,14.40
2023-05-03T00:42:36.724Z,14.30
2023-05-03T00:45:06.352Z,14.30
2023-05-03T00:47:34.017Z,14.20
2023-05-03T00:50:02.005Z,14.20
2023-05-03T00:52:30.267Z,14.20
2023-05-03T00:54:58.105Z,14.20
2023-05-03T00:57:27.347Z,14.20
2023-05-03T00:59:57.069Z,14.20
2023-05-03T01:02:24.999Z,14.20
2023-05-03T01:04:53.948Z,14.20
2023-05-03T01:07:53.128Z,14.20
2023-05-03T01:10:51.341Z,14.20
2023-05-03T01:13:38.963Z,14.10
2023-05-03T01:16:14.537Z,14.10
2023-05-03T01:18:49.017Z,14.10
2023-05-03T01:21:19.933Z,14.10
2023-05-03T01:23:54.503Z,14.10
2023-05-03T01:26:24.011Z,14.10
2023-05-03T01:28:51.842Z,14.00
2023-05-03T01:31:34.589Z,14.00
2023-05-03T01:34:16.966Z,14.00
2023-05-03T01:36:45.608Z,14.00
2023-05-03T01:39:19.871Z,14.00
2023-05-03T01:41:50.540Z,14.00
2023-05-03T01:44:19.881Z,13.90
2023-05-03T01:46:47.787Z,13.90
2023-05-03T01:49:15.329Z,14.00
2023-05-03T01:51:42.717Z,13.90
2023-05-03T01:54:10.123Z,13.90
2023-05-03T01:56:37.984Z,13.90
2023-05-03T01:59:05.555Z,13.90
2023-05-03T02:01:33.107Z,13.90
2023-05-03T02:04:01.382Z,13.90
2023-05-03T02:06:28.955Z,13.90
2023-05-03T02:09:00.126Z,13.80
2023-05-03T02:11:27.586Z,13.80
2023-05-03T02:13:55.022Z,13.80
2023-05-03T02:16:22.535Z,13.80
2023-05-03T02:18:51.951Z,13.80
2023-05-03T02:21:20.531Z,13.80
2023-05-03T02:23:48.339Z,13.90
2023-05-03T02:26:15.787Z,13.80
2023-05-03T02:28:43.306Z,13.80
2023-05-03T02:31:10.808Z,13.80
2023-05-03T02:33:42.795Z,13.80
2023-05-03T02:36:10.472Z,13.70
2023-05-03T02:38:37.963Z,13.70
2023-05-03T02:41:05.633Z,13.70
2023-05-03T02:43:33.023Z,13.70
2023-05-03T02:46:00.563Z,13.70
2023-05-03T02:48:28.056Z,13.70
2023-05-03T02:50:56.027Z,13.70
2023-05-03T02:53:23.494Z,13.70
2023-05-03T02:55:53.088Z,13.70
2023-05-03T02:58:20.566Z,13.70
2023-05-03T03:00:47.989Z,13.70
2023-05-03T03:03:16.412Z,13.70
2023-05-03T03:05:43.969Z,13.70
2023-05-03T03:08:11.441Z,13.70
2023-05-03T03:10:39.444Z,13.70
2023-05-03T03:13:06.956Z,13.70
2023-05-03T03:15:38.513Z,13.70
2023-05-03T03:18:06.629Z,13.70
2023-05-03T03:20:34.237Z,13.70
2023-05-03T03:23:01.675Z,13.70
2023-05-03T03:25:29.183Z,13.70
2023-05-03T03:27:58.185Z,13.60
2023-05-03T03:30:26.481Z,13.60
2023-05-03T03:33:06.720Z,13.60
2023-05-03T03:35:40.308Z,13.60
2023-05-03T03:38:09.089Z,13.60
2023-05-03T03:40:42.984Z,13.50
2023-05-03T03:43:10.420Z,13.50
2023-05-03T03:45:38.395Z,13.50
2023-05-03T03:48:06.698Z,13.50
2023-05-03T03:50:34.447Z,13.50
2023-05-03T03:53:02.003Z,13.50
2023-05-03T03:55:29.613Z,13.50
2023-05-03T03:57:58.160Z,13.50
2023-05-03T04:00:27.330Z,13.50
2023-05-03T04:03:07.777Z,13.50
2023-05-03T04:05:35.890Z,13.50
2023-05-03T04:08:03.885Z,13.50
2023-05-03T04:10:33.659Z,13.50
2023-05-03T04:13:01.441Z,13.60
2023-05-03T04:15:29.278Z,13.60
2023-05-03T04:17:59.147Z,13.60
2023-05-03T04:20:27.135Z,13.50
2023-05-03T04:22:55.409Z,13.50
2023-05-03T04:25:26.893Z,13.50
2023-05-03T04:28:01.139Z,13.50
2023-05-03T04:30:30.480Z,13.60
2023-05-03T04:33:01.389Z,13.60
2023-05-03T04:35:31.077Z,13.60
2023-05-03T04:38:01.588Z,13.60
2023-05-03T04:40:30.953Z,13.70
2023-05-03T04:43:05.926Z,13.70
2023-05-03T04:45:38.163Z,13.80
2023-05-03T04:48:08.039Z,13.80
2023-05-03T04:50:36.531Z,13.80
2023-05-03T04:53:04.946Z,13.90
2023-05-03T04:55:35.379Z,13.90
2023-05-03T04:58:04.717Z,14.00
2023-05-03T05:00:33.252Z,14.00
2023-05-03T05:03:07.237Z,14.10
2023-05-03T05:05:34.919Z,14.10
2023-05-03T05:08:03.139Z,14.20
2023-05-03T05:10:42.981Z,14.20
2023-05-03T05:13:15.312Z,14.20
2023-05-03T05:15:42.863Z,14.20
2023-05-03T05:18:12.463Z,14.20
2023-05-03T05:20:40.982Z,14.30
2023-05-03T05:23:09.038Z,14.20
2023-05-03T05:25:37.493Z,14.30
2023-05-03T05:28:05.335Z,14.30
2023-05-03T05:30:33.552Z,14.40
2023-05-03T05:33:03.596Z,14.50
2023-05-03T05:35:33.815Z,14.50
2023-05-03T05:38:01.598Z,14.60
2023-05-03T05:40:30.131Z,14.70
2023-05-03T05:42:59.404Z,14.70
2023-05-03T05:45:28.945Z,14.80
2023-05-03T05:47:57.872Z,14.80
2023-05-03T05:50:25.514Z,14.90
2023-05-03T05:52:58.132Z,15.00
2023-05-03T05:55:28.853Z,15.10
2023-05-03T05:57:57.164Z,15.10
2023-05-03T06:00:30.669Z,15.30
2023-05-03T06:02:58.150Z,15.30
2023-05-03T06:05:25.597Z,15.50
2023-05-03T06:07:54.324Z,15.50
2023-05-03T06:10:22.716Z,15.50
2023-05-03T06:12:53.107Z,15.60
2023-05-03T06:15:26.280Z,15.70
2023-05-03T06:17:54.908Z,15.80
2023-05-03T06:20:24.223Z,16.00
2023-05-03T06:22:52.785Z,16.00
2023-05-03T06:25:20.415Z,16.20
2023-05-03T06:27:49.880Z,16.40
2023-05-03T06:30:19.617Z,16.50
2023-05-03T06:32:48.777Z,16.70
2023-05-03T06:35:19.315Z,16.80
2023-05-03T06:37:47.021Z,16.90
2023-05-03T06:40:15.477Z,17.30
2023-05-03T06:42:42.869Z,17.50
2023-05-03T06:45:14.250Z,17.70
2023-05-03T06:47:43.047Z,17.70
2023-05-03T06:50:11.234Z,18.00
2023-05-03T06:52:38.786Z,18.10
2023-05-03T06:55:07.168Z,18.00
2023-05-03T06:57:34.665Z,17.80
2023-05-03T07:00:02.301Z,17.80
2023-05-03T07:02:30.163Z,17.70
2023-05-03T07:04:57.613Z,17.70
2023-05-03T07:07:24.996Z,17.70
2023-05-03T07:09:52.530Z,17.90
2023-05-03T07:12:27.591Z,18.10
2023-05-03T07:14:55.602Z,18.10
2023-05-03T07:17:24.099Z,18.10
2023-05-03T07:19:52.288Z,18.00
2023-05-03T07:22:21.362Z,18.10
2023-05-03T07:24:48.848Z,18.10
2023-05-03T07:27:16.295Z,18.10
2023-05-03T07:29:43.888Z,17.80
2023-05-03T07:32:12.297Z,17.80
2023-05-03T07:34:40.541Z,17.90
2023-05-03T07:37:07.880Z,18.20
2023-05-03T07:39:36.351Z,18.60
2023-05-03T07:42:03.785Z,19.10
2023-05-03T07:44:31.180Z,19.70
2023-05-03T07:46:58.561Z,20.00
2023-05-03T07:49:26.009Z,20.10
2023-05-03T07:51:53.362Z,20.10
2023-05-03T07:54:20.767Z,20.40
2023-05-03T07:56:48.328Z,20.90
2023-05-03T07:59:15.793Z,21.10
2023-05-03T08:01:43.676Z,21.50
2023-05-03T08:04:12.191Z,22.10
2023-05-03T08:06:39.881Z,22.40
2023-05-03T08:09:07.266Z,22.50
2023-05-03T08:11:34.863Z,22.90
2023-05-03T08:14:02.841Z,22.80
2023-05-03T08:16:30.956Z,23.40
2023-05-03T08:18:58.478Z,24.20
2023-05-03T08:21:26.206Z,25.00
2023-05-03T08:23:54.683Z,25.70
2023-05-03T08:26:24.261Z,26.00
2023-05-03T08:28:51.964Z,25.40
2023-05-03T08:31:19.420Z,25.10
2023-05-03T08:33:46.804Z,25.50
2023-05-03T08:36:14.170Z,25.80
2023-05-03T08:38:41.753Z,26.70
2023-05-03T08:41:17.383Z,26.90
2023-05-03T08:43:46.606Z,27.20
2023-05-03T08:46:14.619Z,27.90
2023-05-03T08:48:43.757Z,29.40
2023-05-03T08:51:11.583Z,31.20
2023-05-03T08:53:39.035Z,30.60
2023-05-03T08:56:10.951Z,29.20
2023-05-03T08:58:38.927Z,28.80
2023-05-03T09:01:07.720Z,29.00
2023-05-03T09:03:36.296Z,29.20
2023-05-03T09:06:18.774Z,29.30
2023-05-03T09:08:46.184Z,29.10
2023-05-03T09:11:22.742Z,29.40
2023-05-03T09:13:52.016Z,29.10
2023-05-03T09:16:29.464Z,29.80
2023-05-03T09:19:08.203Z,29.90
2023-05-03T09:21:36.876Z,31.50
2023-05-03T09:24:22.100Z,31.50
2023-05-03T09:26:51.662Z,30.90
2023-05-03T09:29:31.118Z,31.80
2023-05-03T09:32:05.388Z,31.30
2023-05-03T09:34:33.963Z,31.20
2023-05-03T09:37:01.570Z,31.00
2023-05-03T09:39:29.439Z,30.10
2023-05-03T09:41:57.182Z,29.90
2023-05-03T09:44:42.036Z,29.80
2023-05-03T09:47:10.224Z,28.70
2023-05-03T09:49:38.658Z,27.90
2023-05-03T09:52:07.807Z,26.80
2023-05-03T09:54:35.640Z,26.10
2023-05-03T09:57:05.014Z,26.00
2023-05-03T09:59:33.835Z,26.80
2023-05-03T10:02:08.808Z,26.90
2023-05-03T10:04:44.734Z,27.20
2023-05-03T10:07:14.990Z,27.60
2023-05-03T10:09:48.825Z,27.60
2023-05-03T10:12:18.750Z,27.50
2023-05-03T10:14:48.361Z,27.70
2023-05-03T10:17:39.481Z,28.00
2023-05-03T10:20:29.516Z,28.00
2023-05-03T10:23:06.483Z,28.70
2023-05-03T10:25:36.538Z,27.90
2023-05-03T10:28:05.977Z,27.40
2023-05-03T10:30:38.203Z,27.80
2023-05-03T10:33:14.654Z,28.00
2023-05-03T10:35:43.913Z,28.70
2023-05-03T10:38:20.697Z,29.40
2023-05-03T10:40:48.428Z,30.10
2023-05-03T10:43:33.584Z,30.30
2023-05-03T10:46:06.005Z,30.90
2023-05-03T10:48:34.656Z,31.20
2023-05-03T10:51:33.175Z,31.00
2023-05-03T10:54:00.644Z,30.30
2023-05-03T10:56:28.024Z,29.20
2023-05-03T10:58:58.801Z,28.80
2023-05-03T11:01:28.011Z,28.40
2023-05-03T11:04:02.620Z,26.80
2023-05-03T11:06:41.383Z,25.90
2023-05-03T11:09:12.142Z,24.90
2023-05-03T11:11:41.121Z,24.50
2023-05-03T11:14:09.660Z,24.00
2023-05-03T11:16:40.527Z,23.80
2023-05-03T11:19:08.356Z,23.80
2023-05-03T11:21:36.495Z,23.50
2023-05-03T11:24:04.006Z,23.00
2023-05-03T11:26:39.150Z,22.60
2023-05-03T11:29:10.588Z,22.70
2023-05-03T11:31:38.147Z,22.90
2023-05-03T11:34:06.832Z,23.30
2023-05-03T11:36:37.390Z,23.50
2023-05-03T11:39:06.013Z,23.20
2023-05-03T11:41:33.484Z,23.10
2023-05-03T11:44:15.321Z,22.90
2023-05-03T11:46:45.322Z,22.90
2023-05-03T11:49:18.444Z,22.80
2023-05-03T11:51:48.678Z,22.70
2023-05-03T11:54:25.467Z,22.60
2023-05-03T11:56:59.568Z,22.40
2023-05-03T11:59:39.127Z,22.20
2023-05-03T12:02:09.414Z,22.10
2023-05-03T12:04:41.614Z,22.00
2023-05-03T12:07:11.990Z,21.80
2023-05-03T12:09:41.856Z,21.90
2023-05-03T12:12:20.199Z,22.00
2023-05-03T12:15:04.536Z,22.10
2023-05-03T12:17:37.263Z,22.30
2023-05-03T12:22:57.657Z,23.10
2023-05-03T12:25:28.159Z,23.10
2023-05-03T12:28:17.855Z,22.90
2023-05-03T12:30:47.500Z,22.90
2023-05-03T12:33:21.991Z,22.90
2023-05-03T12:35:53.351Z,22.80
2023-05-03T12:38:23.896Z,22.90
2023-05-03T12:40:53.733Z,23.00
2023-05-03T12:43:21.758Z,22.80
2023-05-03T12:46:03.964Z,22.60
2023-05-03T12:48:36.890Z,22.30
2023-05-03T12:51:18.545Z,22.20
2023-05-03T12:53:47.898Z,22.00
2023-05-03T12:56:15.774Z,21.90
2023-05-03T12:59:07.653Z,21.90
2023-05-03T13:06:42.850Z,21.70
2023-05-03T13:09:19.139Z,21.60
2023-05-03T13:11:50.406Z,21.60
2023-05-03T13:14:22.021Z,21.70
2023-05-03T13:16:49.669Z,21.70
2023-05-03T13:19:17.671Z,21.70
2023-05-03T13:21:48.170Z,21.80
2023-05-03T13:24:16.088Z,21.80
2023-05-03T13:26:43.560Z,21.80
2023-05-03T13:29:11.134Z,21.70
2023-05-03T13:31:38.601Z,21.80
2023-05-03T13:34:06.842Z,21.80
2023-05-03T13:36:34.209Z,21.70
2023-05-03T13:39:02.082Z,21.60
2023-05-03T13:41:29.558Z,21.60
2023-05-03T13:43:56.969Z,21.50
2023-05-03T13:46:24.779Z,21.60
2023-05-03T13:48:52.777Z,21.80
2023-05-03T13:51:20.249Z,22.10
2023-05-03T13:53:47.741Z,22.20
2023-05-03T13:56:15.284Z,22.50
2023-05-03T13:58:42.736Z,22.60
2023-05-03T14:01:10.910Z,22.40
2023-05-03T14:03:38.292Z,22.10
2023-05-03T14:06:05.827Z,21.90
2023-05-03T14:08:33.174Z,21.70
2023-05-03T14:11:00.507Z,21.70
2023-05-03T14:13:32.981Z,21.60
2023-05-03T14:16:05.210Z,21.50
2023-05-03T14:18:32.787Z,21.50
2023-05-03T14:21:00.678Z,21.50
2023-05-03T14:23:28.331Z,21.50
2023-05-03T14:25:55.774Z,21.60
2023-05-03T14:28:23.260Z,21.50
2023-05-03T14:30:51.503Z,21.50
2023-05-03T14:33:18.863Z,21.50
2023-05-03T14:35:46.498Z,21.50
2023-05-03T14:38:14.599Z,21.60
2023-05-03T14:40:43.138Z,21.40
2023-05-03T14:43:10.995Z,21.40
2023-05-03T14:45:38.380Z,21.30
2023-05-03T14:48:06.183Z,21.20
2023-05-03T14:50:33.621Z,21.00
2023-05-03T14:53:01.011Z,21.00
2023-05-03T14:55:28.474Z,20.80
2023-05-03T14:57:55.975Z,20.70
2023-05-03T15:00:23.604Z,20.60
2023-05-03T15:02:56.923Z,20.50
2023-05-03T15:05:24.500Z,20.50
2023-05-03T15:07:52.528Z,20.40
2023-05-03T15:10:19.973Z,20.40
2023-05-03T15:12:47.759Z,20.30
2023-05-03T15:15:15.858Z,20.20
2023-05-03T15:17:43.427Z,20.10
2023-05-03T15:20:15.336Z,20.10
2023-05-03T15:22:42.723Z,20.00
2023-05-03T15:25:11.782Z,19.90
2023-05-03T15:27:39.247Z,19.90
2023-05-03T15:30:07.596Z,19.90
2023-05-03T15:32:35.183Z,20.10
2023-05-03T15:35:02.674Z,20.20
2023-05-03T15:37:36.024Z,20.30
2023-05-03T15:40:09.434Z,20.20
2023-05-03T15:42:38.192Z,20.00
2023-05-03T15:45:08.589Z,19.90
2023-05-03T15:47:36.237Z,19.90
2023-05-03T15:50:04.093Z,19.80
2023-05-03T15:52:32.065Z,19.90
2023-05-03T15:54:59.412Z,20.00
2023-05-03T15:57:27.185Z,20.00
2023-05-03T15:59:54.877Z,20.00
2023-05-03T16:02:22.308Z,20.00
2023-05-03T16:04:50.664Z,20.10
2023-05-03T16:07:18.463Z,20.30
2023-05-03T16:09:46.673Z,20.40
2023-05-03T16:12:14.067Z,20.40
2023-05-03T16:14:41.517Z,20.40
2023-05-03T16:17:10.153Z,20.40
2023-05-03T16:19:37.694Z,20.20
2023-05-03T16:22:05.673Z,20.10
2023-05-03T16:24:35.941Z,20.10
2023-05-03T16:27:04.017Z,20.00
2023-05-03T16:29:33.817Z,20.00
2023-05-03T16:32:01.556Z,19.90
2023-05-03T16:34:29.158Z,19.80
2023-05-03T16:36:56.498Z,19.80
2023-05-03T16:39:23.868Z,19.90
2023-05-03T16:41:51.290Z,19.90
2023-05-03T16:44:19.302Z,19.80
2023-05-03T16:46:46.896Z,19.80
2023-05-03T16:49:15.230Z,19.90
2023-05-03T16:51:43.175Z,19.90
2023-05-03T16:54:11.928Z,19.90
2023-05-03T16:56:39.296Z,19.90
2023-05-03T16:59:07.068Z,19.80
2023-05-03T17:01:34.585Z,19.80
2023-05-03T17:04:02.249Z,19.70
2023-05-03T17:06:29.667Z,19.60
2023-05-03T17:08:57.063Z,19.60
2023-05-03T17:11:24.424Z,19.50
2023-05-03T17:13:55.030Z,19.50
2023-05-03T17:16:22.779Z,19.50
2023-05-03T17:18:50.398Z,19.40
2023-05-03T17:21:19.220Z,19.40
2023-05-03T17:23:47.025Z,19.30
2023-05-03T17:26:14.618Z,19.40
2023-05-03T17:28:43.779Z,19.40
2023-05-03T17:31:11.213Z,19.40
2023-05-03T17:33:38.649Z,19.40
2023-05-03T17:36:06.308Z,19.50
2023-05-03T17:38:34.803Z,19.40
2023-05-03T17:41:09.685Z,19.40
2023-05-03T17:43:37.742Z,19.40
2023-05-03T17:46:10.683Z,19.30
2023-05-03T17:48:39.692Z,19.30
2023-05-03T17:51:08.082Z,19.30
2023-05-03T17:53:35.623Z,19.20
2023-05-03T17:56:03.044Z,19.20
2023-05-03T17:58:30.532Z,19.10
2023-05-03T18:00:57.926Z,19.00
2023-05-03T18:03:26.606Z,19.00
2023-05-03T18:05:54.212Z,19.00
2023-05-03T18:08:21.655Z,18.90
2023-05-03T18:10:50.201Z,18.90
2023-05-03T18:13:18.032Z,18.90
2023-05-03T18:15:45.752Z,18.90
2023-05-03T18:18:13.580Z,18.80
2023-05-03T18:20:40.965Z,18.80
2023-05-03T18:23:08.974Z,18.80
2023-05-03T18:25:36.377Z,18.80
2023-05-03T18:28:03.846Z,18.80
2023-05-03T18:30:33.053Z,18.80
2023-05-03T18:33:00.563Z,18.70
2023-05-03T18:35:28.053Z,18.70
2023-05-03T18:37:55.458Z,18.70
2023-05-03T18:40:22.907Z,18.60
2023-05-03T18:42:50.328Z,18.60
2023-05-03T18:45:19.519Z,18.50
2023-05-03T18:47:47.145Z,18.50
2023-05-03T18:50:14.683Z,18.50
2023-05-03T18:52:42.047Z,18.50
2023-05-03T18:55:10.442Z,18.40
2023-05-03T18:57:38.177Z,18.40
2023-05-03T19:00:06.503Z,18.40
2023-05-03T19:02:33.898Z,18.40
2023-05-03T19:05:01.554Z,18.40
2023-05-03T19:07:29.126Z,18.30
2023-05-03T19:09:57.772Z,18.20
2023-05-03T19:12:25.436Z,18.20
2023-05-03T19:14:52.859Z,18.10
2023-05-03T19:17:20.531Z,18.10
2023-05-03T19:19:48.028Z,18.00
2023-05-03T19:22:15.513Z,17.90
2023-05-03T19:24:44.008Z,17.90
2023-05-03T19:27:11.754Z,17.80
2023-05-03T19:29:39.077Z,17.70
2023-05-03T19:32:09.447Z,17.70
2023-05-03T19:34:36.818Z,17.70
2023-05-03T19:37:05.100Z,17.70
2023-05-03T19:39:35.594Z,17.70
2023-05-03T19:42:03.974Z,17.60
2023-05-03T19:44:31.497Z,17.60
2023-05-03T19:46:58.936Z,17.60
2023-05-03T19:49:26.312Z,17.60
2023-05-03T19:51:54.051Z,17.60
2023-05-03T19:54:21.998Z,17.60
2023-05-03T19:56:49.669Z,17.60
2023-05-03T19:59:18.193Z,17.60
2023-05-03T20:01:45.703Z,17.50
2023-05-03T20:04:13.283Z,17.50
2023-05-03T20:06:40.884Z,17.40
2023-05-03T20:09:09.235Z,17.40
2023-05-03T20:11:36.703Z,17.40
2023-05-03T20:14:04.191Z,17.40
2023-05-03T20:16:34.935Z,17.30
2023-05-03T20:19:02.385Z,17.30
2023-05-03T20:21:29.817Z,17.30
2023-05-03T20:23:57.728Z,17.30
2023-05-03T20:26:25.642Z,17.30
2023-05-03T20:28:53.108Z,17.20
2023-05-03T20:31:20.543Z,17.20
2023-05-03T20:33:48.108Z,17.30
2023-05-03T20:36:15.463Z,17.30
2023-05-03T20:38:42.842Z,17.30
2023-05-03T20:41:10.254Z,17.30
2023-05-03T20:43:37.700Z,17.30
2023-05-03T20:46:05.150Z,17.30
2023-05-03T20:48:32.698Z,17.30
2023-05-03T20:51:00.851Z,17.30
2023-05-03T20:53:30.101Z,17.40
2023-05-03T20:56:00.369Z,17.30
2023-05-03T20:58:28.315Z,17.30
2023-05-03T21:00:57.707Z,17.20
2023-05-03T21:03:25.898Z,17.20
2023-05-03T21:05:53.662Z,17.30
2023-05-03T21:08:21.257Z,17.30
2023-05-03T21:10:48.692Z,17.30
2023-05-03T21:13:16.204Z,17.30
2023-05-03T21:15:43.721Z,17.30
2023-05-03T21:18:11.299Z,17.30
2023-05-03T21:20:38.917Z,17.20
2023-05-03T21:23:06.415Z,17.30
2023-05-03T21:25:33.809Z,17.30
2023-05-03T21:28:01.168Z,17.30
2023-05-03T21:30:28.682Z,17.30
2023-05-03T21:32:56.082Z,17.20
2023-05-03T21:35:25.371Z,17.20
2023-05-03T21:37:52.855Z,17.20
2023-05-03T21:40:21.255Z,17.20
2023-05-03T21:42:50.913Z,17.20
2023-05-03T21:45:18.775Z,17.10
2023-05-03T21:47:46.328Z,17.10
2023-05-03T21:50:14.077Z,17.10
2023-05-03T21:52:42.006Z,17.00
2023-05-03T21:55:09.853Z,17.00
2023-05-03T21:57:37.938Z,17.00
2023-05-03T22:00:06.416Z,16.90
2023-05-03T22:02:35.890Z,16.80
2023-05-03T22:05:03.501Z,16.70
2023-05-03T22:07:31.540Z,16.70
2023-05-03T22:09:58.914Z,16.60
2023-05-03T22:12:26.386Z,16.60
2023-05-03T22:14:54.210Z,16.60
2023-05-03T22:17:21.761Z,16.50
2023-05-03T22:19:49.212Z,16.50
2023-05-03T22:22:16.565Z,16.50
2023-05-03T22:24:43.937Z,16.50
2023-05-03T22:27:11.307Z,16.50
2023-05-03T22:29:38.730Z,16.50
2023-05-03T22:32:07.210Z,16.50
2023-05-03T22:34:34.698Z,16.50
2023-05-03T22:37:03.859Z,16.50
2023-05-03T22:39:31.853Z,16.50
2023-05-03T22:42:00.266Z,16.40
2023-05-03T22:44:27.915Z,16.40
2023-05-03T22:46:55.555Z,16.30
2023-05-03T22:49:22.937Z,16.30
2023-05-03T22:51:50.471Z,16.20
2023-05-03T22:54:17.948Z,16.20
2023-05-03T22:56:45.278Z,16.20
2023-05-03T22:59:12.677Z,16.20
2023-05-03T23:01:40.222Z,16.10
2023-05-03T23:04:07.785Z,16.10
2023-05-03T23:06:35.192Z,16.10
2023-05-03T23:09:02.648Z,16.00
2023-05-03T23:11:30.092Z,16.00
2023-05-03T23:13:57.561Z,15.90
2023-05-03T23:16:25.040Z,15.90
2023-05-03T23:18:54.218Z,15.80
2023-05-03T23:21:23.136Z,15.90
2023-05-03T23:23:50.500Z,15.90
2023-05-03T23:26:17.871Z,16.00
2023-05-03T23:28:46.245Z,16.00
2023-05-03T23:31:14.098Z,16.00
2023-05-03T23:33:41.915Z,16.10
2023-05-03T23:36:09.659Z,16.10
2023-05-03T23:38:37.230Z,16.00
2023-05-03T23:41:04.662Z,16.00
2023-05-03T23:43:32.073Z,15.90
2023-05-03T23:45:59.489Z,16.00
2023-05-03T23:48:26.905Z,16.00
2023-05-03T23:50:54.300Z,16.00
